sensor_id;sensor_type;location;lat;lon;timestamp;pressure;altitude;pressure_sealevel;temperature;humidity
72262;BME280;60173;52.112;8.648;2023-04-26T00:02:11;100750.81;;;1.21;91.99
72262;BME280;60173;52.112;8.648;2023-04-26T00:04:40;100746.53;;;1.20;91.84
72262;BME280;60173;52.112;8.648;2023-04-26T00:07:07;100752.03;;;1.25;92.07
72262;BME280;60173;52.112;8.648;2023-04-26T00:09:33;100754.41;;;1.15;91.97
72262;BME280;60173;52.112;8.648;2023-04-26T00:11:59;100753.00;;;1.12;92.24
72262;BME280;60173;52.112;8.648;2023-04-26T00:14:26;100752.19;;;1.12;92.17
72262;BME280;60173;52.112;8.648;2023-04-26T00:16:52;100756.63;;;1.18;92.00
72262;BME280;60173;52.112;8.648;2023-04-26T00:19:19;100753.97;;;1.18;91.91
72262;BME280;60173;52.112;8.648;2023-04-26T00:21:45;100754.69;;;1.25;91.60
72262;BME280;60173;52.112;8.648;2023-04-26T00:24:11;100748.75;;;1.23;91.35
72262;BME280;60173;52.112;8.648;2023-04-26T00:26:38;100758.41;;;1.24;91.31
72262;BME280;60173;52.112;8.648;2023-04-26T00:29:04;100760.50;;;1.22;91.19
72262;BME280;60173;52.112;8.648;2023-04-26T00:31:30;100755.03;;;1.17;91.41
72262;BME280;60173;52.112;8.648;2023-04-26T00:33:57;100759.56;;;1.17;91.40
72262;BME280;60173;52.112;8.648;2023-04-26T00:36:23;100756.63;;;1.18;91.37
72262;BME280;60173;52.112;8.648;2023-04-26T00:38:49;100755.97;;;1.23;91.44
72262;BME280;60173;52.112;8.648;2023-04-26T00:41:16;100759.56;;;1.17;91.39
72262;BME280;60173;52.112;8.648;2023-04-26T00:43:43;100756.06;;;1.16;91.34
72262;BME280;60173;52.112;8.648;2023-04-26T00:46:09;100758.00;;;1.09;91.31
72262;BME280;60173;52.112;8.648;2023-04-26T00:48:36;100762.66;;;1.02;91.36
72262;BME280;60173;52.112;8.648;2023-04-26T00:51:04;100752.72;;;0.90;91.70
72262;BME280;60173;52.112;8.648;2023-04-26T00:53:31;100762.91;;;0.82;92.10
72262;BME280;60173;52.112;8.648;2023-04-26T00:55:58;100751.72;;;0.73;92.56
72262;BME280;60173;52.112;8.648;2023-04-26T00:58:25;100762.09;;;0.81;92.95
72262;BME280;60173;52.112;8.648;2023-04-26T01:00:51;100762.19;;;0.75;92.88
72262;BME280;60173;52.112;8.648;2023-04-26T01:03:18;100757.28;;;0.72;93.12
72262;BME280;60173;52.112;8.648;2023-04-26T01:05:45;100758.09;;;0.72;92.92
72262;BME280;60173;52.112;8.648;2023-04-26T01:08:11;100761.38;;;0.74;93.40
72262;BME280;60173;52.112;8.648;2023-04-26T01:10:38;100761.28;;;0.81;93.30
72262;BME280;60173;52.112;8.648;2023-04-26T01:13:05;100757.47;;;0.88;92.94
72262;BME280;60173;52.112;8.648;2023-04-26T01:15:31;100754.69;;;0.95;92.35
72262;BME280;60173;52.112;8.648;2023-04-26T01:17:58;100754.38;;;1.03;91.66
72262;BME280;60173;52.112;8.648;2023-04-26T01:20:25;100757.84;;;0.92;91.30
72262;BME280;60173;52.112;8.648;2023-04-26T01:22:51;100760.09;;;0.77;91.47
72262;BME280;60173;52.112;8.648;2023-04-26T01:25:18;100763.97;;;0.62;92.01
72262;BME280;60173;52.112;8.648;2023-04-26T01:27:44;100770.38;;;0.61;92.58
72262;BME280;60173;52.112;8.648;2023-04-26T01:30:11;100762.88;;;0.70;92.63
72262;BME280;60173;52.112;8.648;2023-04-26T01:32:37;100765.41;;;0.65;92.48
72262;BME280;60173;52.112;8.648;2023-04-26T01:35:03;100765.66;;;0.75;92.55
72262;BME280;60173;52.112;8.648;2023-04-26T01:37:30;100756.31;;;0.84;92.35
72262;BME280;60173;52.112;8.648;2023-04-26T01:39:56;100757.13;;;0.85;92.10
72262;BME280;60173;52.112;8.648;2023-04-26T01:42:23;100753.09;;;0.94;91.96
72262;BME280;60173;52.112;8.648;2023-04-26T01:44:49;100749.28;;;1.02;91.67
72262;BME280;60173;52.112;8.648;2023-04-26T01:47:15;100757.63;;;0.94;91.64
72262;BME280;60173;52.112;8.648;2023-04-26T01:49:42;100753.09;;;0.94;91.83
72262;BME280;60173;52.112;8.648;2023-04-26T01:52:08;100749.91;;;0.85;91.90
72262;BME280;60173;52.112;8.648;2023-04-26T01:54:34;100760.91;;;0.77;92.22
72262;BME280;60173;52.112;8.648;2023-04-26T01:57:01;100759.28;;;0.76;92.37
72262;BME280;60173;52.112;8.648;2023-04-26T01:59:27;100755.31;;;0.67;92.75
72262;BME280;60173;52.112;8.648;2023-04-26T02:01:53;100763.38;;;0.60;93.02
72262;BME280;60173;52.112;8.648;2023-04-26T02:04:20;100761.59;;;0.54;93.43
72262;BME280;60173;52.112;8.648;2023-04-26T02:06:46;100757.97;;;0.49;93.82
72262;BME280;60173;52.112;8.648;2023-04-26T02:09:12;100754.41;;;0.55;93.97
72262;BME280;60173;52.112;8.648;2023-04-26T02:11:39;100752.50;;;0.43;93.97
72262;BME280;60173;52.112;8.648;2023-04-26T02:14:05;100751.31;;;0.39;94.19
72262;BME280;60173;52.112;8.648;2023-04-26T02:16:31;100752.84;;;0.29;94.26
72262;BME280;60173;52.112;8.648;2023-04-26T02:18:58;100756.50;;;0.34;94.61
72262;BME280;60173;52.112;8.648;2023-04-26T02:21:24;100755.53;;;0.29;94.92
72262;BME280;60173;52.112;8.648;2023-04-26T02:23:51;100760.66;;;0.30;95.06
72262;BME280;60173;52.112;8.648;2023-04-26T02:26:17;100757.09;;;0.36;95.01
72262;BME280;60173;52.112;8.648;2023-04-26T02:28:44;100766.72;;;0.37;94.90
72262;BME280;60173;52.112;8.648;2023-04-26T02:31:10;100766.72;;;0.37;94.66
72262;BME280;60173;52.112;8.648;2023-04-26T02:33:36;100768.31;;;0.45;94.72
72262;BME280;60173;52.112;8.648;2023-04-26T02:36:04;100764.22;;;0.42;94.31
72262;BME280;60173;52.112;8.648;2023-04-26T02:38:33;100755.22;;;0.37;94.29
72262;BME280;60173;52.112;8.648;2023-04-26T02:41:00;100759.75;;;0.36;94.58
72262;BME280;60173;52.112;8.648;2023-04-26T02:43:26;100763.94;;;0.32;94.54
72262;BME280;60173;52.112;8.648;2023-04-26T02:45:53;100758.50;;;0.39;94.71
72262;BME280;60173;52.112;8.648;2023-04-26T02:48:19;100764.38;;;0.48;94.56
72262;BME280;60173;52.112;8.648;2023-04-26T02:50:46;100760.66;;;0.49;94.27
72262;BME280;60173;52.112;8.648;2023-04-26T02:53:12;100767.50;;;0.44;94.26
72262;BME280;60173;52.112;8.648;2023-04-26T02:55:39;100756.03;;;0.37;94.02
72262;BME280;60173;52.112;8.648;2023-04-26T02:58:05;100768.44;;;0.32;94.07
72262;BME280;60173;52.112;8.648;2023-04-26T03:00:31;100773.88;;;0.25;94.31
72262;BME280;60173;52.112;8.648;2023-04-26T03:02:57;100770.97;;;0.27;94.44
72262;BME280;60173;52.112;8.648;2023-04-26T03:05:24;100768.38;;;0.20;94.53
72262;BME280;60173;52.112;8.648;2023-04-26T03:07:51;100769.03;;;0.15;94.66
72262;BME280;60173;52.112;8.648;2023-04-26T03:10:17;100769.94;;;0.09;94.56
72262;BME280;60173;52.112;8.648;2023-04-26T03:12:43;100765.03;;;0.06;94.94
72262;BME280;60173;52.112;8.648;2023-04-26T03:15:10;100769.97;;;0.03;95.33
72262;BME280;60173;52.112;8.648;2023-04-26T03:17:36;100772.44;;;0.04;95.48
72262;BME280;60173;52.112;8.648;2023-04-26T03:20:03;100769.16;;;0.02;95.72
72262;BME280;60173;52.112;8.648;2023-04-26T03:22:29;100771.91;;;0.14;95.87
72262;BME280;60173;52.112;8.648;2023-04-26T03:24:56;100767.19;;;0.34;95.51
72262;BME280;60173;52.112;8.648;2023-04-26T03:27:22;100768.38;;;0.38;94.95
72262;BME280;60173;52.112;8.648;2023-04-26T03:29:48;100761.84;;;0.34;94.92
72262;BME280;60173;52.112;8.648;2023-04-26T03:32:15;100759.41;;;0.33;94.77
72262;BME280;60173;52.112;8.648;2023-04-26T03:34:41;100764.75;;;0.33;94.89
72262;BME280;60173;52.112;8.648;2023-04-26T03:37:07;100764.91;;;0.38;94.79
72262;BME280;60173;52.112;8.648;2023-04-26T03:39:34;100758.22;;;0.47;94.49
72262;BME280;60173;52.112;8.648;2023-04-26T03:42:00;100762.16;;;0.44;94.22
72262;BME280;60173;52.112;8.648;2023-04-26T03:44:26;100756.44;;;0.41;94.21
72262;BME280;60173;52.112;8.648;2023-04-26T03:46:56;100762.28;;;0.31;94.18
72262;BME280;60173;52.112;8.648;2023-04-26T03:49:22;100756.19;;;0.42;94.34
72262;BME280;60173;52.112;8.648;2023-04-26T03:51:48;100758.41;;;0.45;94.49
72262;BME280;60173;52.112;8.648;2023-04-26T03:54:15;100751.91;;;0.41;94.60
72262;BME280;60173;52.112;8.648;2023-04-26T03:56:41;100754.34;;;0.43;94.41
72262;BME280;60173;52.112;8.648;2023-04-26T03:59:07;100749.53;;;0.33;94.36
72262;BME280;60173;52.112;8.648;2023-04-26T04:01:34;100757.38;;;0.28;94.28
72262;BME280;60173;52.112;8.648;2023-04-26T04:04:00;100763.41;;;0.24;94.74
72262;BME280;60173;52.112;8.648;2023-04-26T04:06:27;100762.22;;;0.19;94.54
72262;BME280;60173;52.112;8.648;2023-04-26T04:08:53;100764.16;;;0.12;94.66
72262;BME280;60173;52.112;8.648;2023-04-26T04:11:20;100766.00;;;0.12;95.02
72262;BME280;60173;52.112;8.648;2023-04-26T04:13:47;100766.22;;;0.10;95.48
72262;BME280;60173;52.112;8.648;2023-04-26T04:16:13;100762.22;;;0.19;95.85
72262;BME280;60173;52.112;8.648;2023-04-26T04:18:40;100770.47;;;0.36;95.61
72262;BME280;60173;52.112;8.648;2023-04-26T04:21:06;100769.13;;;0.45;95.09
72262;BME280;60173;52.112;8.648;2023-04-26T04:23:32;100766.59;;;0.32;94.76
72262;BME280;60173;52.112;8.648;2023-04-26T04:25:59;100767.88;;;0.30;94.75
72262;BME280;60173;52.112;8.648;2023-04-26T04:28:25;100766.28;;;0.40;94.99
72262;BME280;60173;52.112;8.648;2023-04-26T04:30:51;100758.34;;;0.34;94.76
72262;BME280;60173;52.112;8.648;2023-04-26T04:33:18;100768.84;;;0.35;94.39
72262;BME280;60173;52.112;8.648;2023-04-26T04:35:44;100765.13;;;0.36;94.44
72262;BME280;60173;52.112;8.648;2023-04-26T04:38:10;100769.56;;;0.42;94.55
72262;BME280;60173;52.112;8.648;2023-04-26T04:40:37;100767.25;;;0.64;94.82
72262;BME280;60173;52.112;8.648;2023-04-26T04:43:03;100771.00;;;0.94;94.61
72262;BME280;60173;52.112;8.648;2023-04-26T04:45:29;100774.06;;;1.39;93.26
72262;BME280;60173;52.112;8.648;2023-04-26T04:47:56;100775.84;;;1.80;91.59
72262;BME280;60173;52.112;8.648;2023-04-26T04:50:22;100773.91;;;2.52;88.94
72262;BME280;60173;52.112;8.648;2023-04-26T04:52:48;100774.00;;;2.97;85.55
72262;BME280;60173;52.112;8.648;2023-04-26T04:55:15;100769.31;;;3.04;82.78
72262;BME280;60173;52.112;8.648;2023-04-26T04:57:41;100778.50;;;2.80;82.68
72262;BME280;60173;52.112;8.648;2023-04-26T05:00:08;100773.91;;;2.63;83.64
72262;BME280;60173;52.112;8.648;2023-04-26T05:02:35;100777.91;;;2.49;84.31
72262;BME280;60173;52.112;8.648;2023-04-26T05:05:04;100776.06;;;2.38;84.96
72262;BME280;60173;52.112;8.648;2023-04-26T05:07:31;100777.81;;;2.32;85.57
72262;BME280;60173;52.112;8.648;2023-04-26T05:09:57;100780.59;;;2.25;85.90
72262;BME280;60173;52.112;8.648;2023-04-26T05:12:24;100779.69;;;2.08;86.25
72262;BME280;60173;52.112;8.648;2023-04-26T05:14:50;100780.16;;;2.05;87.11
72262;BME280;60173;52.112;8.648;2023-04-26T05:17:17;100786.56;;;2.04;87.40
72262;BME280;60173;52.112;8.648;2023-04-26T05:19:43;100785.75;;;2.15;87.33
72262;BME280;60173;52.112;8.648;2023-04-26T05:22:10;100793.06;;;2.08;87.28
72262;BME280;60173;52.112;8.648;2023-04-26T05:24:37;100794.69;;;2.33;86.97
72262;BME280;60173;52.112;8.648;2023-04-26T05:27:03;100803.06;;;2.48;86.64
72262;BME280;60173;52.112;8.648;2023-04-26T05:29:30;100800.63;;;2.58;86.27
72262;BME280;60173;52.112;8.648;2023-04-26T05:31:56;100803.50;;;2.68;86.06
72262;BME280;60173;52.112;8.648;2023-04-26T05:34:23;100798.44;;;2.84;85.38
72262;BME280;60173;52.112;8.648;2023-04-26T05:36:49;100809.69;;;2.98;85.23
72262;BME280;60173;52.112;8.648;2023-04-26T05:39:16;100810.00;;;3.13;83.89
72262;BME280;60173;52.112;8.648;2023-04-26T05:41:42;100806.41;;;3.36;83.44
72262;BME280;60173;52.112;8.648;2023-04-26T05:44:09;100797.47;;;3.47;82.48
72262;BME280;60173;52.112;8.648;2023-04-26T05:46:35;100797.94;;;3.44;82.79
72262;BME280;60173;52.112;8.648;2023-04-26T05:49:01;100805.78;;;3.62;82.84
72262;BME280;60173;52.112;8.648;2023-04-26T05:51:28;100801.88;;;3.87;82.03
72262;BME280;60173;52.112;8.648;2023-04-26T05:53:54;100805.59;;;5.30;79.28
72262;BME280;60173;52.112;8.648;2023-04-26T05:56:20;100803.22;;;6.98;71.20
72262;BME280;60173;52.112;8.648;2023-04-26T05:58:47;100800.78;;;8.60;65.70
72262;BME280;60173;52.112;8.648;2023-04-26T06:01:13;100798.66;;;9.85;61.55
72262;BME280;60173;52.112;8.648;2023-04-26T06:03:39;100805.91;;;10.72;58.44
72262;BME280;60173;52.112;8.648;2023-04-26T06:06:06;100804.66;;;11.26;56.52
72262;BME280;60173;52.112;8.648;2023-04-26T06:08:33;100801.78;;;11.37;54.67
72262;BME280;60173;52.112;8.648;2023-04-26T06:10:59;100800.66;;;11.75;54.10
72262;BME280;60173;52.112;8.648;2023-04-26T06:13:26;100790.22;;;12.43;52.71
72262;BME280;60173;52.112;8.648;2023-04-26T06:15:52;100797.69;;;12.51;52.77
72262;BME280;60173;52.112;8.648;2023-04-26T06:18:19;100794.16;;;12.64;51.65
72262;BME280;60173;52.112;8.648;2023-04-26T06:20:45;100790.13;;;12.76;50.63
72262;BME280;60173;52.112;8.648;2023-04-26T06:23:12;100794.81;;;12.84;49.31
72262;BME280;60173;52.112;8.648;2023-04-26T06:25:38;100800.06;;;11.60;50.28
72262;BME280;60173;52.112;8.648;2023-04-26T06:28:04;100801.56;;;11.85;51.50
72262;BME280;60173;52.112;8.648;2023-04-26T06:30:31;100805.13;;;11.85;50.57
72262;BME280;60173;52.112;8.648;2023-04-26T06:32:57;100817.41;;;9.82;56.59
72262;BME280;60173;52.112;8.648;2023-04-26T06:35:23;100818.00;;;10.08;56.47
72262;BME280;60173;52.112;8.648;2023-04-26T06:37:50;100825.44;;;9.18;57.17
72262;BME280;60173;52.112;8.648;2023-04-26T06:40:16;100826.19;;;8.59;59.17
72262;BME280;60173;52.112;8.648;2023-04-26T06:42:43;100824.13;;;7.54;62.43
72262;BME280;60173;52.112;8.648;2023-04-26T06:45:10;100831.97;;;7.50;63.59
72262;BME280;60173;52.112;8.648;2023-04-26T06:47:36;100826.81;;;7.69;63.26
72262;BME280;60173;52.112;8.648;2023-04-26T06:50:03;100827.09;;;7.47;62.64
72262;BME280;60173;52.112;8.648;2023-04-26T06:52:29;100829.31;;;6.82;64.45
72262;BME280;60173;52.112;8.648;2023-04-26T06:54:56;100829.63;;;6.91;65.85
72262;BME280;60173;52.112;8.648;2023-04-26T06:57:26;100837.16;;;6.84;66.50
72262;BME280;60173;52.112;8.648;2023-04-26T06:59:52;100834.88;;;7.28;65.64
72262;BME280;60173;52.112;8.648;2023-04-26T07:02:18;100830.53;;;7.22;64.25
72262;BME280;60173;52.112;8.648;2023-04-26T07:04:45;100828.94;;;7.31;64.21
72262;BME280;60173;52.112;8.648;2023-04-26T07:07:11;100826.75;;;7.23;66.50
72262;BME280;60173;52.112;8.648;2023-04-26T07:09:39;100837.34;;;7.35;65.52
72262;BME280;60173;52.112;8.648;2023-04-26T07:12:05;100836.94;;;6.95;64.41
72262;BME280;60173;52.112;8.648;2023-04-26T07:14:32;100841.53;;;6.95;65.25
72262;BME280;60173;52.112;8.648;2023-04-26T07:16:58;100834.91;;;7.48;63.39
72262;BME280;60173;52.112;8.648;2023-04-26T07:19:24;100834.63;;;7.30;62.96
72262;BME280;60173;52.112;8.648;2023-04-26T07:21:51;100837.34;;;7.40;62.74
72262;BME280;60173;52.112;8.648;2023-04-26T07:24:17;100837.34;;;7.40;63.73
72262;BME280;60173;52.112;8.648;2023-04-26T07:26:43;100834.13;;;7.58;62.89
72262;BME280;60173;52.112;8.648;2023-04-26T07:29:10;100831.16;;;7.50;62.99
72262;BME280;60173;52.112;8.648;2023-04-26T07:31:36;100837.94;;;7.88;64.06
72262;BME280;60173;52.112;8.648;2023-04-26T07:34:02;100832.53;;;7.73;61.97
72262;BME280;60173;52.112;8.648;2023-04-26T07:36:29;100835.22;;;7.62;62.50
72262;BME280;60173;52.112;8.648;2023-04-26T07:38:55;100835.47;;;8.12;61.67
72262;BME280;60173;52.112;8.648;2023-04-26T07:41:21;100834.66;;;8.22;60.30
72262;BME280;60173;52.112;8.648;2023-04-26T07:43:48;100825.75;;;8.11;62.36
72262;BME280;60173;52.112;8.648;2023-04-26T07:46:14;100829.56;;;8.05;59.91
72262;BME280;60173;52.112;8.648;2023-04-26T07:48:41;100828.72;;;8.09;60.50
72262;BME280;60173;52.112;8.648;2023-04-26T07:51:09;100826.00;;;8.20;60.26
72262;BME280;60173;52.112;8.648;2023-04-26T07:53:36;100832.47;;;8.24;61.89
72262;BME280;60173;52.112;8.648;2023-04-26T07:56:03;100833.56;;;8.53;58.38
72262;BME280;60173;52.112;8.648;2023-04-26T07:58:30;100831.69;;;8.18;58.15
72262;BME280;60173;52.112;8.648;2023-04-26T08:00:56;100831.97;;;8.01;58.63
72262;BME280;60173;52.112;8.648;2023-04-26T08:03:23;100837.38;;;7.86;59.76
72262;BME280;60173;52.112;8.648;2023-04-26T08:05:49;100837.09;;;7.92;59.53
72262;BME280;60173;52.112;8.648;2023-04-26T08:08:16;100837.38;;;8.06;60.19
72262;BME280;60173;52.112;8.648;2023-04-26T08:10:44;100831.19;;;7.90;59.87
72262;BME280;60173;52.112;8.648;2023-04-26T08:13:10;100834.63;;;8.37;59.42
72262;BME280;60173;52.112;8.648;2023-04-26T08:15:37;100830.19;;;8.82;56.48
72262;BME280;60173;52.112;8.648;2023-04-26T08:18:03;100827.78;;;9.30;55.85
72262;BME280;60173;52.112;8.648;2023-04-26T08:20:30;100835.19;;;9.59;53.43
72262;BME280;60173;52.112;8.648;2023-04-26T08:22:56;100833.25;;;9.25;55.53
72262;BME280;60173;52.112;8.648;2023-04-26T08:25:23;100837.31;;;9.22;58.03
72262;BME280;60173;52.112;8.648;2023-04-26T08:27:49;100842.31;;;9.00;58.37
72262;BME280;60173;52.112;8.648;2023-04-26T08:30:16;100841.94;;;8.62;55.87
72262;BME280;60173;52.112;8.648;2023-04-26T08:32:42;100832.75;;;8.32;56.11
72262;BME280;60173;52.112;8.648;2023-04-26T08:35:09;100833.91;;;9.01;58.02
72262;BME280;60173;52.112;8.648;2023-04-26T08:37:35;100838.44;;;9.16;53.53
72262;BME280;60173;52.112;8.648;2023-04-26T08:40:03;100848.09;;;8.73;54.12
72262;BME280;60173;52.112;8.648;2023-04-26T08:42:30;100840.53;;;8.65;54.64
72262;BME280;60173;52.112;8.648;2023-04-26T08:45:00;100842.09;;;8.91;54.44
72262;BME280;60173;52.112;8.648;2023-04-26T08:47:43;100835.00;;;9.05;54.85
72262;BME280;60173;52.112;8.648;2023-04-26T08:50:11;100840.03;;;9.22;54.43
72262;BME280;60173;52.112;8.648;2023-04-26T08:52:38;100835.31;;;9.43;54.50
72262;BME280;60173;52.112;8.648;2023-04-26T08:55:07;100839.97;;;9.38;53.88
72262;BME280;60173;52.112;8.648;2023-04-26T08:57:34;100838.28;;;8.87;55.15
72262;BME280;60173;52.112;8.648;2023-04-26T09:00:04;100841.81;;;9.42;55.19
72262;BME280;60173;52.112;8.648;2023-04-26T09:02:31;100837.16;;;9.48;54.81
72262;BME280;60173;52.112;8.648;2023-04-26T09:04:58;100838.97;;;9.63;55.15
72262;BME280;60173;52.112;8.648;2023-04-26T09:07:32;100835.09;;;8.80;55.88
72262;BME280;60173;52.112;8.648;2023-04-26T09:10:03;100842.44;;;8.64;56.97
72262;BME280;60173;52.112;8.648;2023-04-26T09:12:30;100838.63;;;8.75;58.40
72262;BME280;60173;52.112;8.648;2023-04-26T09:14:56;100842.09;;;8.91;60.34
72262;BME280;60173;52.112;8.648;2023-04-26T09:17:24;100843.34;;;9.09;59.26
72262;BME280;60173;52.112;8.648;2023-04-26T09:19:50;100838.06;;;9.38;59.04
72262;BME280;60173;52.112;8.648;2023-04-26T09:22:35;100841.09;;;9.66;54.81
72262;BME280;60173;52.112;8.648;2023-04-26T09:25:03;100836.91;;;9.44;52.83
72262;BME280;60173;52.112;8.648;2023-04-26T09:27:35;100839.94;;;9.77;55.85
72262;BME280;60173;52.112;8.648;2023-04-26T09:30:11;100835.88;;;10.09;52.69
72262;BME280;60173;52.112;8.648;2023-04-26T09:32:58;100841.63;;;10.36;51.28
72262;BME280;60173;52.112;8.648;2023-04-26T09:43:09;100833.91;;;12.65;48.58
72262;BME280;60173;52.112;8.648;2023-04-26T09:45:55;100827.66;;;12.51;44.17
72262;BME280;60173;52.112;8.648;2023-04-26T09:48:29;100825.06;;;11.81;46.44
72262;BME280;60173;52.112;8.648;2023-04-26T09:50:57;100825.72;;;10.97;46.18
72262;BME280;60173;52.112;8.648;2023-04-26T09:53:41;100835.44;;;10.55;47.75
72262;BME280;60173;52.112;8.648;2023-04-26T09:56:12;100831.28;;;9.75;47.41
72262;BME280;60173;52.112;8.648;2023-04-26T09:58:59;100837.25;;;10.06;47.43
72262;BME280;60173;52.112;8.648;2023-04-26T10:01:26;100834.66;;;10.25;47.19
72262;BME280;60173;52.112;8.648;2023-04-26T10:03:59;100840.88;;;9.96;46.88
72262;BME280;60173;52.112;8.648;2023-04-26T10:06:26;100845.94;;;10.37;47.72
72262;BME280;60173;52.112;8.648;2023-04-26T10:08:53;100841.69;;;10.31;46.64
72262;BME280;60173;52.112;8.648;2023-04-26T10:11:20;100842.94;;;9.76;47.81
72262;BME280;60173;52.112;8.648;2023-04-26T10:13:49;100845.88;;;9.40;48.94
72262;BME280;60173;52.112;8.648;2023-04-26T10:16:16;100845.88;;;8.90;50.46
72262;BME280;60173;52.112;8.648;2023-04-26T10:18:42;100848.66;;;8.70;52.22
72262;BME280;60173;52.112;8.648;2023-04-26T10:21:16;100845.47;;;8.47;53.31
72262;BME280;60173;52.112;8.648;2023-04-26T10:23:46;100854.66;;;8.46;55.12
72262;BME280;60173;52.112;8.648;2023-04-26T10:26:50;100849.13;;;8.92;54.97
72262;BME280;60173;52.112;8.648;2023-04-26T10:29:18;100840.53;;;9.35;53.95
72262;BME280;60173;52.112;8.648;2023-04-26T10:34:30;100843.59;;;9.18;54.50
72262;BME280;60173;52.112;8.648;2023-04-26T10:39:37;100842.34;;;8.90;52.97
72262;BME280;60173;52.112;8.648;2023-04-26T10:42:23;100842.44;;;8.64;53.36
72262;BME280;60173;52.112;8.648;2023-04-26T10:44:58;100830.47;;;8.86;53.37
72262;BME280;60173;52.112;8.648;2023-04-26T10:47:30;100830.94;;;8.98;51.81
72262;BME280;60173;52.112;8.648;2023-04-26T10:50:05;100823.09;;;9.46;51.44
72262;BME280;60173;52.112;8.648;2023-04-26T10:52:33;100829.25;;;9.91;50.96
72262;BME280;60173;52.112;8.648;2023-04-26T10:55:00;100833.94;;;10.14;50.19
72262;BME280;60173;52.112;8.648;2023-04-26T10:57:46;100832.16;;;10.34;49.59
72262;BME280;60173;52.112;8.648;2023-04-26T11:00:16;100830.59;;;10.23;49.97
72262;BME280;60173;52.112;8.648;2023-04-26T11:02:44;100827.88;;;11.00;49.00
72262;BME280;60173;52.112;8.648;2023-04-26T11:05:12;100816.06;;;11.80;47.92
72262;BME280;60173;52.112;8.648;2023-04-26T11:10:30;100805.34;;;12.49;44.75
72262;BME280;60173;52.112;8.648;2023-04-26T11:13:01;100812.53;;;12.59;45.19
72262;BME280;60173;52.112;8.648;2023-04-26T11:15:30;100811.47;;;12.41;43.71
72262;BME280;60173;52.112;8.648;2023-04-26T11:17:57;100814.06;;;11.15;47.21
72262;BME280;60173;52.112;8.648;2023-04-26T11:20:33;100825.78;;;10.92;47.65
72262;BME280;60173;52.112;8.648;2023-04-26T11:23:00;100812.97;;;10.20;50.05
72262;BME280;60173;52.112;8.648;2023-04-26T11:25:27;100823.25;;;10.28;48.58
72262;BME280;60173;52.112;8.648;2023-04-26T11:28:01;100814.53;;;10.55;48.85
72262;BME280;60173;52.112;8.648;2023-04-26T11:30:31;100813.28;;;10.18;47.88
72262;BME280;60173;52.112;8.648;2023-04-26T11:32:59;100822.03;;;10.63;48.58
72262;BME280;60173;52.112;8.648;2023-04-26T11:35:26;100825.31;;;10.84;46.89
72262;BME280;60173;52.112;8.648;2023-04-26T11:37:52;100829.28;;;10.73;45.66
72262;BME280;60173;52.112;8.648;2023-04-26T11:40:19;100825.75;;;11.16;45.68
72262;BME280;60173;52.112;8.648;2023-04-26T11:42:46;100824.47;;;11.84;46.11
72262;BME280;60173;52.112;8.648;2023-04-26T11:45:14;100816.34;;;11.46;45.24
72262;BME280;60173;52.112;8.648;2023-04-26T11:47:42;100816.56;;;11.30;43.50
72262;BME280;60173;52.112;8.648;2023-04-26T11:50:09;100818.97;;;10.70;45.38
72262;BME280;60173;52.112;8.648;2023-04-26T11:52:37;100823.69;;;10.35;48.40
72262;BME280;60173;52.112;8.648;2023-04-26T11:55:04;100831.16;;;9.90;48.57
72262;BME280;60173;52.112;8.648;2023-04-26T11:57:31;100830.69;;;9.44;49.00
72262;BME280;60173;52.112;8.648;2023-04-26T12:00:17;100831.56;;;9.34;49.87
72262;BME280;60173;52.112;8.648;2023-04-26T12:02:44;100833.34;;;9.04;50.24
72262;BME280;60173;52.112;8.648;2023-04-26T12:05:23;100838.53;;;9.01;52.24
72262;BME280;60173;52.112;8.648;2023-04-26T12:07:54;100845.22;;;9.14;51.71
72262;BME280;60173;52.112;8.648;2023-04-26T12:10:34;100832.88;;;8.87;52.49
72262;BME280;60173;52.112;8.648;2023-04-26T12:13:01;100837.25;;;8.78;53.39
72262;BME280;60173;52.112;8.648;2023-04-26T12:15:30;100842.91;;;8.81;53.89
72262;BME280;60173;52.112;8.648;2023-04-26T12:20:35;100843.66;;;9.02;53.46
72262;BME280;60173;52.112;8.648;2023-04-26T12:23:03;100845.19;;;9.19;54.27
72262;BME280;60173;52.112;8.648;2023-04-26T12:25:32;100846.31;;;9.13;54.83
72262;BME280;60173;52.112;8.648;2023-04-26T12:27:59;100850.88;;;9.22;54.55
72262;BME280;60173;52.112;8.648;2023-04-26T12:30:27;100837.19;;;9.43;52.14
72262;BME280;60173;52.112;8.648;2023-04-26T12:32:54;100845.69;;;9.70;50.95
72262;BME280;60173;52.112;8.648;2023-04-26T12:35:28;100836.44;;;10.06;49.24
72262;BME280;60173;52.112;8.648;2023-04-26T12:37:55;100833.63;;;10.50;49.69
72262;BME280;60173;52.112;8.648;2023-04-26T12:40:25;100831.72;;;10.51;48.80
72262;BME280;60173;52.112;8.648;2023-04-26T12:42:52;100834.88;;;10.82;48.08
72262;BME280;60173;52.112;8.648;2023-04-26T12:45:19;100834.06;;;11.24;46.86
72262;BME280;60173;52.112;8.648;2023-04-26T12:47:45;100828.25;;;11.69;44.29
72262;BME280;60173;52.112;8.648;2023-04-26T12:50:13;100809.47;;;12.33;43.53
72262;BME280;60173;52.112;8.648;2023-04-26T12:52:43;100821.41;;;12.64;43.95
72262;BME280;60173;52.112;8.648;2023-04-26T12:55:11;100817.94;;;13.00;42.71
72262;BME280;60173;52.112;8.648;2023-04-26T12:57:39;100817.75;;;12.55;43.20
72262;BME280;60173;52.112;8.648;2023-04-26T13:00:08;100815.34;;;12.54;43.53
72262;BME280;60173;52.112;8.648;2023-04-26T13:02:35;100817.88;;;12.50;44.55
72262;BME280;60173;52.112;8.648;2023-04-26T13:05:02;100821.41;;;12.64;42.58
72262;BME280;60173;52.112;8.648;2023-04-26T13:07:30;100821.47;;;12.87;41.97
72262;BME280;60173;52.112;8.648;2023-04-26T13:09:56;100820.09;;;12.02;41.75
72262;BME280;60173;52.112;8.648;2023-04-26T13:12:23;100830.13;;;11.68;44.74
72262;BME280;60173;52.112;8.648;2023-04-26T13:14:50;100824.56;;;12.11;46.17
72262;BME280;60173;52.112;8.648;2023-04-26T13:17:16;100828.56;;;12.00;44.17
72262;BME280;60173;52.112;8.648;2023-04-26T13:19:43;100819.44;;;12.10;43.79